Time;durP1;ratioP1;P1;durP2;ratioP2;P2;SDS_P1;SDS_P2;PMS_P1;PMS_P2;Temp;Humidity;BMP_temperature;BMP_pressure;BME280_temperature;BME280_humidity;BME280_pressure;Samples;Min_cycle;Max_cycle;Signal;HPM_P1;HPM_P2
2022/07/30 00:02:04;;;;;;;1.77;1.67;;;14.40;99.90;13.80;100928;;;;566462;250;24073;-80
2022/07/30 00:04:32;;;;;;;1.87;1.50;;;14.40;99.90;13.70;100932;;;;566061;251;24087;-79
2022/07/30 00:07:02;;;;;;;4.90;1.70;;;14.30;99.90;13.70;100929;;;;570803;249;25173;-79
2022/07/30 00:09:30;;;;;;;3.37;1.70;;;14.30;99.90;13.70;100929;;;;546724;257;24131;-80
2022/07/30 00:11:55;;;;;;;3.23;1.57;;;14.20;99.90;13.60;100934;;;;547093;258;24143;-79
2022/07/30 00:14:25;;;;;;;4.97;1.70;;;14.10;99.90;13.60;100927;;;;570371;249;24117;-79
2022/07/30 00:16:56;;;;;;;1.63;1.53;;;14.10;99.90;13.50;100929;;;;558987;253;24139;-83
2022/07/30 00:19:21;;;;;;;2.60;1.83;;;14.10;99.90;13.50;100918;;;;570288;246;24092;-80
2022/07/30 00:21:49;;;;;;;2.17;1.83;;;14.00;99.90;13.40;100920;;;;556907;252;24140;-80
2022/07/30 00:24:17;;;;;;;3.37;1.53;;;14.00;99.90;13.40;100922;;;;556112;251;24091;-79
2022/07/30 00:26:45;;;;;;;1.47;1.37;;;14.00;99.90;13.40;100914;;;;555496;252;25183;-78
2022/07/30 00:29:15;;;;;;;2.40;1.70;;;14.00;99.90;13.40;100915;;;;570357;245;24089;-80
2022/07/30 00:31:40;;;;;;;2.57;1.60;;;14.00;99.90;13.40;100914;;;;557952;252;24107;-81
2022/07/30 00:34:08;;;;;;;1.47;1.37;;;14.00;99.90;13.40;100916;;;;558044;250;24111;-80
2022/07/30 00:36:36;;;;;;;1.50;1.40;;;13.90;99.90;13.30;100913;;;;547342;258;24088;-80
2022/07/30 00:39:04;;;;;;;4.77;1.80;;;14.00;99.90;13.40;100912;;;;570820;249;24092;-80
2022/07/30 00:41:32;;;;;;;1.60;1.60;;;13.90;99.90;13.40;100915;;;;557976;251;24092;-80
2022/07/30 00:44:01;;;;;;;2.50;1.40;;;14.00;99.90;13.40;100905;;;;561596;254;24192;-78
2022/07/30 00:46:29;;;;;;;1.67;1.57;;;14.00;99.90;13.40;100907;;;;567669;247;24134;-79
2022/07/30 00:48:57;;;;;;;1.47;1.43;;;14.00;99.90;13.40;100918;;;;557966;252;24166;-79
2022/07/30 00:51:25;;;;;;;2.93;1.60;;;14.00;99.90;13.40;100902;;;;567444;251;24083;-81
2022/07/30 00:53:53;;;;;;;1.53;1.53;;;14.00;99.90;13.40;100906;;;;557688;252;24144;-79
2022/07/30 00:56:21;;;;;;;3.43;1.50;;;14.00;99.90;13.40;100902;;;;560636;250;24121;-80
2022/07/30 00:58:49;;;;;;;1.90;1.50;;;14.00;99.90;13.30;100906;;;;557698;252;24103;-80
2022/07/30 01:01:17;;;;;;;1.90;1.80;;;14.00;99.90;13.30;100902;;;;561206;253;24157;-79
2022/07/30 01:03:45;;;;;;;2.87;1.63;;;14.00;99.90;13.30;100906;;;;566551;251;24114;-81
2022/07/30 01:06:13;;;;;;;1.90;1.77;;;13.90;99.90;13.30;100893;;;;557285;248;24077;-80
2022/07/30 01:08:45;;;;;;;2.53;2.33;;;14.00;99.90;13.30;100893;;;;555174;250;46259;-81
2022/07/30 01:11:13;;;;;;;2.43;2.23;;;13.90;99.90;13.30;100891;;;;557542;252;24101;-79
2022/07/30 01:13:41;;;;;;;1.83;1.73;;;13.90;99.90;13.30;100886;;;;566536;251;24203;-77
2022/07/30 01:16:09;;;;;;;1.43;1.40;;;13.90;99.90;13.30;100880;;;;566418;251;24077;-78
2022/07/30 01:21:23;;;;;;;3.07;1.23;;;14.00;99.90;13.40;100880;;;;570334;250;24188;-80
2022/07/30 01:23:50;;;;;;;1.93;1.83;;;14.00;99.90;13.40;100876;;;;562045;252;24143;-80
2022/07/30 01:26:18;;;;;;;1.70;1.60;;;14.00;99.90;13.50;100875;;;;547980;253;24119;-80
2022/07/30 01:28:46;;;;;;;6.80;1.60;;;14.00;99.90;13.40;100870;;;;557643;252;24101;-80
2022/07/30 01:31:14;;;;;;;2.67;1.47;;;14.00;99.90;13.40;100871;;;;557838;253;24079;-79
2022/07/30 01:33:42;;;;;;;1.80;1.50;;;14.00;99.90;13.40;100866;;;;552116;257;24134;-79
2022/07/30 01:36:14;;;;;;;2.43;1.80;;;14.00;99.90;13.40;100864;;;;560030;252;24129;-80
2022/07/30 01:38:39;;;;;;;2.20;1.30;;;14.00;99.90;13.40;100861;;;;570781;245;24085;-80
2022/07/30 01:41:11;;;;;;;2.33;1.57;;;14.00;99.90;13.40;100852;;;;560155;252;25157;-82
2022/07/30 01:43:36;;;;;;;4.00;1.87;;;14.00;99.90;13.40;100851;;;;561695;249;24137;-78
2022/07/30 01:46:04;;;;;;;3.03;1.60;;;13.90;99.90;13.30;100852;;;;552089;257;24108;-78
2022/07/30 01:48:32;;;;;;;1.70;1.60;;;13.90;99.90;13.30;100844;;;;560242;248;24137;-80
2022/07/30 01:51:00;;;;;;;4.60;1.40;;;13.90;99.90;13.30;100843;;;;548341;252;24150;-79
2022/07/30 01:53:28;;;;;;;2.87;1.77;;;13.80;99.90;13.20;100838;;;;558075;251;24143;-79
2022/07/30 01:55:59;;;;;;;2.73;1.73;;;13.80;99.90;13.20;100837;;;;567864;250;24076;-81
2022/07/30 01:58:24;;;;;;;2.27;2.07;;;13.70;99.90;13.10;100827;;;;556768;253;35446;-81
2022/07/30 02:00:55;;;;;;;3.70;1.90;;;13.70;99.90;13.10;100825;;;;560990;252;24080;-80
2022/07/30 02:03:23;;;;;;;5.17;2.40;;;13.70;99.90;13.10;100826;;;;567064;244;35403;-78
2022/07/30 02:05:47;;;;;;;3.93;1.83;;;13.70;99.90;13.00;100830;;;;567793;247;24086;-78
2022/07/30 02:08:27;;;;;;;6.73;2.07;;;13.70;99.90;13.00;100838;;;;548565;253;24132;-80
2022/07/30 02:10:58;;;;;;;1.50;1.50;;;13.60;99.90;13.00;100829;;;;558092;249;24073;-81
2022/07/30 02:13:26;;;;;;;2.00;1.90;;;13.60;99.90;13.00;100827;;;;557331;253;24131;-78
2022/07/30 02:16:06;;;;;;;1.70;1.67;;;13.60;99.90;13.00;100818;;;;552098;257;24124;-79
2022/07/30 02:18:42;;;;;;;1.90;1.50;;;13.60;99.90;12.90;100814;;;;566189;252;24108;-81
2022/07/30 02:21:15;;;;;;;8.97;1.90;;;13.50;99.90;12.80;100815;;;;562394;252;24105;-80
2022/07/30 02:23:39;;;;;;;4.17;1.80;;;13.50;99.90;12.80;100803;;;;561543;252;24134;-81
2022/07/30 02:26:10;;;;;;;3.43;1.77;;;13.40;99.90;12.80;100807;;;;562318;249;24109;-80
2022/07/30 02:28:35;;;;;;;5.97;1.87;;;13.40;99.90;12.70;100792;;;;560321;253;24116;-82
2022/07/30 02:31:03;;;;;;;1.73;1.63;;;13.30;99.90;12.70;100785;;;;562135;252;24138;-80
2022/07/30 02:33:34;;;;;;;3.50;2.00;;;13.30;99.90;12.70;100784;;;;570790;252;24087;-81
2022/07/30 02:36:02;;;;;;;5.23;1.90;;;13.30;99.90;12.70;100786;;;;556936;252;24092;-80
2022/07/30 02:38:29;;;;;;;2.80;1.77;;;13.30;99.90;12.70;100788;;;;558128;252;24098;-80
2022/07/30 02:40:57;;;;;;;5.37;2.33;;;13.30;99.90;12.70;100793;;;;562297;250;24150;-79
2022/07/30 02:43:29;;;;;;;8.17;2.37;;;13.30;99.90;12.70;100796;;;;557342;252;24092;-80
2022/07/30 02:45:54;;;;;;;4.17;2.20;;;13.30;99.90;12.60;100796;;;;557122;252;24147;-80
2022/07/30 02:48:23;;;;;;;1.93;1.80;;;13.20;99.90;12.60;100793;;;;570774;249;24095;-80
2022/07/30 02:50:51;;;;;;;2.40;2.20;;;13.20;99.90;12.60;100797;;;;557161;252;24100;-80
2022/07/30 02:53:19;;;;;;;4.53;1.90;;;13.20;99.90;12.50;100796;;;;557206;252;24088;-80
2022/07/30 02:55:47;;;;;;;5.37;1.77;;;13.20;99.90;12.50;100786;;;;557211;252;24090;-78
2022/07/30 02:58:18;;;;;;;2.70;1.33;;;13.20;99.90;12.50;100788;;;;557213;252;24091;-80
2022/07/30 03:00:49;;;;;;;7.27;2.00;;;13.20;99.90;12.50;100796;;;;557784;252;24094;-79
2022/07/30 03:03:14;;;;;;;3.17;2.20;;;13.10;99.90;12.50;100787;;;;556589;245;24156;-80
2022/07/30 03:05:42;;;;;;;6.77;2.80;;;13.10;99.90;12.50;100787;;;;557871;251;35327;-79
2022/07/30 03:08:13;;;;;;;7.67;2.50;;;13.20;99.90;12.60;100780;;;;572098;249;24075;-79
2022/07/30 03:10:43;;;;;;;3.50;2.30;;;13.20;99.90;12.60;100788;;;;558016;252;24098;-79
2022/07/30 03:13:07;;;;;;;6.82;3.10;;;13.20;99.90;12.60;100781;;;;552640;252;35267;-78
2022/07/30 03:15:36;;;;;;;7.20;2.83;;;13.20;99.90;12.60;100787;;;;562935;252;24098;-79
2022/07/30 03:18:03;;;;;;;14.17;2.63;;;13.20;99.90;12.60;100794;;;;557746;252;24108;-81
2022/07/30 03:20:32;;;;;;;5.83;2.37;;;13.30;99.90;12.70;100795;;;;566842;251;24092;-80
2022/07/30 03:23:03;;;;;;;4.90;2.40;;;13.30;99.90;12.70;100787;;;;557361;252;24084;-81
2022/07/30 03:25:29;;;;;;;2.43;1.97;;;13.40;99.90;12.70;100794;;;;556846;252;24088;-80
2022/07/30 03:27:58;;;;;;;9.17;2.40;;;13.30;99.90;12.80;100802;;;;562111;250;24136;-80
2022/07/30 03:30:25;;;;;;;2.97;2.10;;;13.40;99.90;12.80;100799;;;;562233;252;24084;-80
2022/07/30 03:32:56;;;;;;;5.97;2.73;;;13.50;99.90;12.90;100798;;;;557478;252;24129;-81
2022/07/30 03:35:21;;;;;;;6.73;2.47;;;13.50;99.90;13.00;100802;;;;562584;250;24130;-78
2022/07/30 03:37:49;;;;;;;7.03;2.60;;;13.60;99.90;13.00;100803;;;;557499;252;24105;-79
2022/07/30 03:40:16;;;;;;;5.50;2.60;;;13.60;99.90;13.10;100814;;;;557468;249;24071;-78
2022/07/30 03:42:47;;;;;;;3.97;2.07;;;13.70;99.90;13.20;100813;;;;557247;252;24150;-78
2022/07/30 03:45:18;;;;;;;13.17;2.70;;;13.80;99.90;13.30;100809;;;;557195;252;24077;-77
2022/07/30 03:47:43;;;;;;;9.07;3.07;;;13.90;99.90;13.40;100821;;;;562266;252;24137;-78
2022/07/30 03:50:11;;;;;;;5.20;2.80;;;14.00;99.90;13.50;100822;;;;558200;252;24107;-77
2022/07/30 03:52:39;;;;;;;6.90;2.63;;;14.00;99.90;13.70;100822;;;;566533;251;24091;-78
2022/07/30 03:55:10;;;;;;;3.27;2.63;;;14.30;99.90;14.50;100828;;;;558243;252;24084;-76
2022/07/30 03:57:38;;;;;;;4.57;2.43;;;14.90;99.90;15.70;100826;;;;570742;245;24094;-78
2022/07/30 04:00:08;;;;;;;5.87;2.90;;;16.10;99.90;16.90;100831;;;;557167;252;24169;-78
2022/07/30 04:02:43;;;;;;;4.70;2.37;;;18.60;99.90;18.00;100835;;;;557777;252;24103;-78
2022/07/30 04:05:14;;;;;;;3.07;2.47;;;18.60;99.90;19.00;100833;;;;562123;252;24135;-78
2022/07/30 04:07:42;;;;;;;6.07;2.50;;;19.70;99.90;20.10;100833;;;;557292;252;24085;-78
2022/07/30 04:10:10;;;;;;;6.47;2.60;;;20.80;99.90;21.00;100828;;;;562306;250;23109;-79
2022/07/30 04:12:38;;;;;;;5.63;2.33;;;21.70;99.90;21.80;100829;;;;570794;249;23093;-79
2022/07/30 04:15:06;;;;;;;4.63;1.93;;;23.20;99.90;22.50;100825;;;;570777;249;24117;-80
2022/07/30 04:17:49;;;;;;;3.87;1.53;;;23.20;99.90;23.10;100819;;;;568691;245;24092;-79
2022/07/30 04:20:20;;;;;;;8.83;1.80;;;23.80;99.90;23.60;100818;;;;563300;252;24084;-80
2022/07/30 04:22:48;;;;;;;4.33;1.73;;;24.50;99.90;24.60;100817;;;;557126;252;24087;-79
2022/07/30 04:25:16;;;;;;;4.43;1.70;;;26.30;99.90;25.40;100813;;;;562798;252;24137;-79
2022/07/30 04:27:48;;;;;;;3.93;1.57;;;26.20;99.90;26.20;100809;;;;562510;252;23109;-78
2022/07/30 04:30:12;;;;;;;5.40;2.00;;;27.00;99.90;27.00;100811;;;;558548;252;23159;-80
2022/07/30 04:32:43;;;;;;;28.63;3.13;;;27.90;99.90;27.70;100813;;;;571036;246;23087;-80
2022/07/30 04:35:12;;;;;;;5.17;2.03;;;28.70;96.30;27.80;100810;;;;571206;244;23124;-81
2022/07/30 04:37:36;;;;;;;20.88;3.50;;;28.90;93.00;28.20;100803;;;;557105;252;23193;-81
2022/07/30 04:40:08;;;;;;;7.57;1.30;;;29.20;90.70;28.50;100802;;;;571163;249;24124;-79
2022/07/30 04:42:32;;;;;;;4.95;1.35;;;29.60;88.30;29.10;100808;;;;569609;250;23097;-80
2022/07/30 04:45:00;;;;;;;3.20;1.40;;;30.10;84.40;29.70;100811;;;;571110;245;23112;-80
2022/07/30 04:47:28;;;;;;;2.05;1.40;;;30.70;80.50;30.50;100812;;;;571047;246;23093;-80
2022/07/30 04:49:56;;;;;;;7.35;1.20;;;31.40;76.30;31.10;100814;;;;571059;245;24128;-79
2022/07/30 04:52:23;;;;;;;6.93;1.08;;;32.10;73.80;32.00;100817;;;;557431;252;24093;-80
2022/07/30 04:54:51;;;;;;;2.35;1.12;;;33.00;68.60;32.40;100817;;;;557212;252;23123;-79
2022/07/30 04:57:22;;;;;;;0.80;0.80;;;33.60;65.60;32.70;100821;;;;557260;252;24131;-82
2022/07/30 04:59:48;;;;;;;1.33;1.23;;;34.50;60.80;33.20;100824;;;;562152;252;23109;-80
2022/07/30 05:02:17;;;;;;;3.78;1.33;;;34.80;59.30;33.50;100824;;;;570715;246;24151;-82
2022/07/30 05:04:45;;;;;;;2.25;0.90;;;34.90;58.00;33.60;100831;;;;556813;252;23112;-81
2022/07/30 05:07:13;;;;;;;2.17;0.95;;;34.80;58.00;33.80;100828;;;;562014;250;23105;-81
2022/07/30 05:09:41;;;;;;;2.87;0.90;;;34.90;56.80;33.30;100833;;;;565355;247;24066;-79
2022/07/30 05:12:09;;;;;;;2.28;0.90;;;34.70;55.70;33.30;100838;;;;569780;245;35227;-80
2022/07/30 05:14:37;;;;;;;1.95;1.02;;;34.50;56.10;33.30;100829;;;;568504;248;23179;-78
2022/07/30 05:17:06;;;;;;;4.12;1.00;;;34.90;55.00;33.80;100828;;;;568413;248;24111;-80
2022/07/30 05:19:34;;;;;;;0.90;0.65;;;34.90;55.00;34.40;100823;;;;568593;248;23078;-81
2022/07/30 05:22:01;;;;;;;0.70;0.70;;;35.40;52.90;34.60;100825;;;;568452;248;23070;-80
2022/07/30 05:24:29;;;;;;;0.82;0.80;;;35.70;51.50;35.10;100827;;;;568396;248;23079;-82
2022/07/30 05:26:57;;;;;;;1.52;0.80;;;36.20;50.60;35.30;100824;;;;568504;248;23101;-80
2022/07/30 05:29:25;;;;;;;1.65;0.95;;;36.60;48.80;35.60;100834;;;;569233;248;23127;-80
2022/07/30 05:31:53;;;;;;;1.87;0.90;;;36.70;49.40;36.00;100830;;;;569704;248;23068;-81
2022/07/30 05:34:21;;;;;;;0.90;0.90;;;37.10;49.00;36.50;100826;;;;569682;248;23078;-81
2022/07/30 05:36:49;;;;;;;1.48;1.00;;;37.50;47.50;36.60;100827;;;;569680;248;23069;-82
2022/07/30 05:39:17;;;;;;;3.33;0.80;;;37.70;47.10;36.70;100826;;;;569264;248;23112;-81
2022/07/30 05:41:45;;;;;;;1.85;0.70;;;37.70;44.70;37.20;100827;;;;569446;248;23062;-81
2022/07/30 05:44:13;;;;;;;1.58;1.10;;;38.10;45.60;37.90;100830;;;;569468;248;23115;-81
2022/07/30 05:46:41;;;;;;;1.85;0.90;;;38.70;45.50;38.80;100844;;;;555128;253;23200;-82
2022/07/30 05:49:09;;;;;;;3.47;1.33;;;39.60;43.80;38.90;100844;;;;569402;249;23098;-81
2022/07/30 05:51:36;;;;;;;2.35;1.08;;;39.70;43.20;38.80;100836;;;;580189;244;24086;-81
2022/07/30 05:54:04;;;;;;;1.52;0.90;;;39.70;43.50;38.50;100839;;;;580155;244;24131;-80
2022/07/30 05:56:36;;;;;;;1.25;1.15;;;39.40;43.10;37.70;100831;;;;558622;253;23144;-82
2022/07/30 05:59:00;;;;;;;2.42;0.90;;;38.80;43.00;37.00;100829;;;;567899;244;23093;-81
2022/07/30 06:01:28;;;;;;;2.42;1.05;;;38.30;42.40;37.10;100829;;;;566036;250;23080;-81
2022/07/30 06:03:56;;;;;;;3.33;1.08;;;38.10;43.40;37.60;100834;;;;564117;250;24176;-82
2022/07/30 06:06:24;;;;;;;2.03;1.05;;;38.30;42.90;38.10;100837;;;;565175;249;23047;-82
2022/07/30 06:08:52;;;;;;;4.05;1.00;;;38.70;42.80;38.40;100845;;;;577457;246;23053;-82
2022/07/30 06:11:20;;;;;;;2.40;1.00;;;39.00;42.50;38.00;100828;;;;569418;251;23099;-83
2022/07/30 06:13:48;;;;;;;1.25;1.15;;;38.20;42.10;37.10;100827;;;;561778;252;23131;-82
2022/07/30 06:16:16;;;;;;;1.00;0.80;;;38.20;42.10;37.10;100835;;;;562274;252;24162;-82
2022/07/30 06:18:44;;;;;;;2.83;1.30;;;37.90;43.50;37.80;100834;;;;556703;251;23093;-82
2022/07/30 06:21:13;;;;;;;2.40;0.90;;;38.30;43.00;38.60;100829;;;;569434;250;23101;-82
2022/07/30 06:23:40;;;;;;;1.05;1.02;;;39.00;43.20;39.30;100831;;;;570050;248;23062;-82
2022/07/30 06:26:08;;;;;;;2.20;0.93;;;39.60;42.00;39.60;100835;;;;585159;245;23118;-82
2022/07/30 06:28:36;;;;;;;0.65;0.65;;;40.00;41.40;39.80;100831;;;;579278;245;23120;-81
2022/07/30 06:31:04;;;;;;;1.42;0.90;;;40.20;41.30;39.70;100825;;;;578779;246;23077;-84
2022/07/30 06:33:32;;;;;;;2.10;0.95;;;40.40;40.70;39.10;100830;;;;562553;250;23107;-83
2022/07/30 06:36:00;;;;;;;1.65;0.70;;;40.10;40.50;38.30;100825;;;;572458;248;23077;-84
2022/07/30 06:38:28;;;;;;;6.70;1.05;;;39.30;41.40;38.20;100828;;;;557745;253;23091;-83
2022/07/30 06:41:00;;;;;;;0.70;0.70;;;39.00;43.00;38.70;100828;;;;568869;248;23057;-80
2022/07/30 06:43:23;;;;;;;2.72;0.80;;;39.30;42.30;38.90;100832;;;;578107;247;24099;-80
2022/07/30 06:45:51;;;;;;;4.60;1.00;;;39.60;42.60;39.00;100826;;;;568912;248;23073;-79
2022/07/30 06:48:20;;;;;;;3.22;0.65;;;39.90;42.40;39.30;100829;;;;568825;248;24165;-80
2022/07/30 06:50:49;;;;;;;1.70;0.82;;;40.20;42.40;39.60;100833;;;;568609;249;23165;-80
2022/07/30 06:53:17;;;;;;;2.15;0.90;;;40.10;42.30;39.80;100828;;;;568529;249;23072;-80
2022/07/30 06:55:45;;;;;;;3.92;1.00;;;40.30;42.40;40.00;100833;;;;568566;249;23150;-81
2022/07/30 06:58:12;;;;;;;3.97;0.93;;;40.40;42.10;39.80;100833;;;;568457;249;23090;-80
2022/07/30 07:00:43;;;;;;;2.05;1.23;;;40.50;41.40;39.80;100836;;;;568298;249;23077;-81
2022/07/30 07:03:08;;;;;;;1.62;0.90;;;40.40;42.00;40.20;100836;;;;576297;246;23089;-82
2022/07/30 07:05:39;;;;;;;1.02;0.70;;;40.70;41.60;40.70;100833;;;;555131;251;23119;-80
2022/07/30 07:08:04;;;;;;;0.82;0.82;;;41.00;41.50;41.00;100839;;;;557635;250;23101;-81
2022/07/30 07:10:32;;;;;;;3.85;1.00;;;41.30;40.40;41.70;100844;;;;562446;252;24117;-79
2022/07/30 07:13:00;;;;;;;3.42;0.75;;;41.90;40.00;42.30;100831;;;;562467;250;24158;-82
2022/07/30 07:15:29;;;;;;;3.28;0.80;;;43.30;38.70;43.20;100845;;;;562120;252;23087;-83
2022/07/30 07:17:57;;;;;;;0.80;0.80;;;43.60;37.40;43.00;100845;;;;561869;252;23106;-82
2022/07/30 07:20:25;;;;;;;1.35;0.93;;;43.60;37.40;42.80;100844;;;;561845;252;23120;-82
2022/07/30 07:22:53;;;;;;;6.22;1.00;;;43.50;37.80;42.80;100833;;;;561904;252;23141;-82
2022/07/30 07:25:21;;;;;;;1.95;0.98;;;43.50;37.40;42.80;100831;;;;561774;252;23115;-82
2022/07/30 07:27:49;;;;;;;0.73;0.73;;;43.50;37.20;42.80;100834;;;;561699;252;23249;-83
2022/07/30 07:30:17;;;;;;;1.00;1.00;;;43.50;37.00;42.50;100827;;;;564294;247;23073;-82
2022/07/30 07:32:46;;;;;;;2.83;1.00;;;43.40;37.20;41.80;100822;;;;567584;248;23073;-88
2022/07/30 07:35:15;;;;;;;2.42;0.93;;;42.20;38.10;41.30;100824;;;;568371;248;24189;-84
2022/07/30 07:37:43;;;;;;;4.65;1.45;;;42.20;38.00;40.90;100827;;;;563316;247;35066;-87
2022/07/30 07:40:11;;;;;;;2.50;0.90;;;41.80;38.60;40.90;100836;;;;567993;248;23071;-84
2022/07/30 07:42:39;;;;;;;2.55;1.10;;;41.80;39.30;41.50;100828;;;;578796;246;23080;-85
2022/07/30 07:45:07;;;;;;;4.95;0.90;;;41.80;39.30;42.20;100826;;;;568208;244;23092;-90
2022/07/30 07:47:50;;;;;;;8.68;1.48;;;42.40;38.60;43.00;100828;;;;571467;248;23080;-89
2022/07/30 07:50:19;;;;;;;2.72;0.88;;;43.20;38.10;43.40;100821;;;;573044;248;23057;-90
2022/07/30 07:52:43;;;;;;;3.55;0.90;;;43.70;37.00;43.60;100825;;;;568675;247;23072;-91
2022/07/30 07:55:11;;;;;;;2.15;1.05;;;44.10;37.00;44.20;100821;;;;574532;247;23113;-91
2022/07/30 07:57:42;;;;;;;1.77;1.00;;;44.60;36.90;45.40;100816;;;;571165;247;23055;-91
2022/07/30 08:00:22;;;;;;;3.03;1.00;;;45.50;35.90;44.70;100815;;;;569081;247;23076;-88
2022/07/30 08:02:40;;;;;;;4.37;0.80;;;45.50;35.20;44.10;100818;;;;572922;245;23084;-86
2022/07/30 08:05:11;;;;;;;1.73;0.77;;;45.20;35.20;43.90;100808;;;;567083;247;23101;-91
2022/07/30 08:07:36;;;;;;;3.03;1.33;;;44.80;35.50;43.40;100814;;;;560528;252;23120;-90
2022/07/30 08:10:06;;;;;;;1.30;0.82;;;43.70;35.80;42.60;100798;;;;563303;250;24145;-90
2022/07/30 08:12:38;;;;;;;7.80;1.05;;;43.70;35.70;41.80;100810;;;;566872;248;23071;-86
2022/07/30 08:15:06;;;;;;;1.48;0.90;;;42.90;36.50;41.30;100810;;;;572256;247;23077;-90
2022/07/30 08:17:30;;;;;;;6.00;1.08;;;42.40;36.30;40.20;100809;;;;561217;252;23139;-90
2022/07/30 08:20:01;;;;;;;1.25;0.98;;;41.50;36.50;39.60;100803;;;;566841;247;23062;-89
2022/07/30 08:22:29;;;;;;;1.40;0.80;;;40.70;37.90;38.90;100810;;;;561600;245;23137;-89
2022/07/30 08:24:55;;;;;;;4.82;1.00;;;39.50;39.20;38.60;100815;;;;575968;243;23175;-89
2022/07/30 08:27:23;;;;;;;0.95;0.52;;;38.80;38.50;37.90;100811;;;;581213;245;24150;-90
2022/07/30 08:29:51;;;;;;;0.80;0.73;;;38.80;38.60;37.30;100810;;;;575490;243;35058;-89
2022/07/30 08:32:19;;;;;;;0.80;0.62;;;38.50;39.10;37.80;100805;;;;566063;247;23097;-89
2022/07/30 08:34:48;;;;;;;3.62;0.90;;;38.80;39.00;37.90;100797;;;;564469;248;35046;-89
2022/07/30 08:37:16;;;;;;;1.85;0.70;;;38.80;39.00;38.30;100805;;;;567703;248;23145;-89
2022/07/30 08:39:44;;;;;;;4.82;1.00;;;39.00;39.60;39.00;100798;;;;569907;248;23091;-88
2022/07/30 08:42:11;;;;;;;4.25;0.95;;;39.60;40.00;39.90;100807;;;;567879;248;23163;-88
2022/07/30 08:44:41;;;;;;;2.65;0.65;;;40.50;39.00;39.00;100799;;;;578415;243;23083;-86
2022/07/30 08:47:08;;;;;;;1.92;1.05;;;40.40;37.00;38.00;100789;;;;569679;246;23093;-86
2022/07/30 08:49:39;;;;;;;3.83;1.00;;;39.50;38.10;36.90;100794;;;;569618;248;23111;-86
2022/07/30 08:52:08;;;;;;;3.85;0.90;;;38.50;40.30;36.60;100797;;;;569775;248;23064;-87
2022/07/30 08:54:32;;;;;;;1.75;0.82;;;37.80;40.40;36.20;100790;;;;569804;244;24160;-86
2022/07/30 08:57:00;;;;;;;2.17;0.73;;;37.60;40.20;36.00;100790;;;;568018;248;23079;-86
2022/07/30 08:59:28;;;;;;;3.30;1.08;;;37.30;40.70;36.20;100786;;;;570043;248;23149;-87
2022/07/30 09:01:56;;;;;;;1.80;0.70;;;37.20;41.50;36.50;100783;;;;578840;244;23088;-87
2022/07/30 09:04:25;;;;;;;2.35;0.75;;;37.40;40.40;36.30;100784;;;;568741;247;23071;-86
2022/07/30 09:06:53;;;;;;;1.27;0.70;;;37.30;41.40;36.10;100787;;;;570810;247;24153;-86
2022/07/30 09:09:21;;;;;;;1.48;0.93;;;37.30;41.40;36.70;100794;;;;568538;247;24081;-85
2022/07/30 09:11:49;;;;;;;1.77;0.55;;;37.50;41.80;37.10;100792;;;;568456;247;23110;-86
2022/07/30 09:14:17;;;;;;;1.20;1.20;;;38.10;40.80;37.60;100782;;;;570346;246;23082;-85
2022/07/30 09:16:48;;;;;;;1.48;0.90;;;38.50;40.10;38.70;100789;;;;568267;247;23066;-86
2022/07/30 09:19:18;;;;;;;3.05;0.93;;;39.40;39.20;39.40;100793;;;;570096;247;23105;-86
2022/07/30 09:21:55;;;;;;;1.37;0.90;;;40.40;37.90;39.40;100790;;;;578828;244;23074;-86
2022/07/30 09:24:24;;;;;;;1.27;0.70;;;41.00;37.90;39.80;100801;;;;578866;244;23091;-87
2022/07/30 09:26:59;;;;;;;3.60;1.00;;;41.30;37.90;39.90;100786;;;;558836;246;23159;-86
2022/07/30 09:29:27;;;;;;;4.80;0.82;;;41.30;37.10;40.20;100788;;;;563234;252;23126;-83
2022/07/30 09:31:58;;;;;;;4.45;1.10;;;41.60;36.20;40.10;100787;;;;567550;244;24118;-88
2022/07/30 09:34:34;;;;;;;2.78;0.98;;;41.60;36.50;40.30;100789;;;;547784;256;23181;-87
2022/07/30 09:37:02;;;;;;;4.62;0.90;;;41.80;36.20;40.20;100784;;;;571458;248;24083;-85
2022/07/30 09:39:39;;;;;;;3.37;1.20;;;42.00;35.70;40.30;100784;;;;568868;248;23048;-85
2022/07/30 09:42:24;;;;;;;3.12;0.75;;;42.00;36.30;40.30;100788;;;;576438;240;23059;-84
2022/07/30 09:44:52;;;;;;;1.02;0.90;;;42.00;36.40;40.90;100786;;;;562250;252;23138;-86
2022/07/30 09:47:32;;;;;;;4.55;1.05;;;42.40;36.40;41.30;100779;;;;568836;248;23040;-82
2022/07/30 09:50:09;;;;;;;3.50;1.15;;;42.90;35.30;41.60;100786;;;;576478;246;23094;-86
2022/07/30 09:52:37;;;;;;;1.17;0.95;;;43.10;35.10;41.50;100778;;;;568080;252;23192;-85
2022/07/30 09:55:05;;;;;;;6.05;1.20;;;43.10;34.70;41.60;100787;;;;568420;248;23103;-82
2022/07/30 09:57:36;;;;;;;2.03;0.85;;;43.20;35.00;41.80;100782;;;;572495;245;23125;-84
2022/07/30 10:00:19;;;;;;;4.07;0.90;;;43.40;34.60;41.50;100788;;;;575940;249;23086;-83
2022/07/30 10:02:51;;;;;;;1.12;0.70;;;43.40;35.40;40.90;100772;;;;561377;250;23146;-86
2022/07/30 10:05:19;;;;;;;4.95;1.12;;;42.90;34.00;40.40;100779;;;;580957;246;23088;-86
2022/07/30 10:07:52;;;;;;;1.42;1.00;;;42.60;33.70;40.10;100778;;;;576312;246;23078;-85
2022/07/30 10:10:22;;;;;;;5.35;0.90;;;42.10;34.90;40.50;100782;;;;572356;245;23158;-84
2022/07/30 10:12:50;;;;;;;0.80;0.80;;;42.20;34.60;40.60;100777;;;;572550;248;23076;-85
2022/07/30 10:15:21;;;;;;;6.32;1.45;;;42.20;34.40;40.70;100775;;;;573128;247;23115;-85
2022/07/30 10:17:49;;;;;;;3.70;1.15;;;42.40;34.80;40.60;100769;;;;574028;247;23071;-84
2022/07/30 10:20:20;;;;;;;5.03;1.02;;;42.40;34.40;40.00;100775;;;;573714;247;23076;-85
2022/07/30 10:22:45;;;;;;;6.82;1.45;;;41.90;34.60;38.60;100783;;;;573523;247;23080;-85
2022/07/30 10:25:13;;;;;;;1.12;0.85;;;40.60;36.00;37.60;100767;;;;573578;240;23100;-85
2022/07/30 10:27:45;;;;;;;3.15;1.00;;;38.70;38.10;37.00;100779;;;;573288;247;23107;-85
2022/07/30 10:30:10;;;;;;;3.90;0.88;;;38.60;38.00;36.90;100783;;;;573336;245;23086;-84
2022/07/30 10:32:38;;;;;;;2.10;1.10;;;38.50;39.00;36.80;100783;;;;572753;247;23155;-84
2022/07/30 10:35:06;;;;;;;2.15;1.20;;;38.20;39.10;36.90;100793;;;;570096;248;24154;-83
2022/07/30 10:37:34;;;;;;;0.85;0.85;;;38.20;38.20;36.70;100782;;;;572965;245;23109;-83
2022/07/30 10:40:17;;;;;;;2.80;1.20;;;38.10;38.70;36.20;100790;;;;576103;243;23082;-83
2022/07/30 10:43:16;;;;;;;2.10;0.70;;;37.10;38.90;35.50;100787;;;;572797;248;23104;-84
2022/07/30 10:45:48;;;;;;;3.12;1.27;;;37.00;38.80;34.40;100789;;;;572872;248;23078;-83
2022/07/30 10:48:18;;;;;;;1.33;0.75;;;35.90;41.10;33.20;100793;;;;572512;248;23089;-83
2022/07/30 10:50:50;;;;;;;5.40;0.85;;;33.60;42.80;32.50;100785;;;;575754;247;23107;-83
2022/07/30 10:53:36;;;;;;;2.37;0.82;;;33.50;42.70;31.40;100782;;;;571869;248;23073;-82
2022/07/30 10:56:18;;;;;;;7.03;1.02;;;32.30;44.70;30.20;100797;;;;572655;248;23109;-82
2022/07/30 10:59:08;;;;;;;4.03;0.82;;;31.00;46.00;29.20;100770;;;;568063;245;23067;-82
2022/07/30 11:01:48;;;;;;;5.73;0.80;;;29.90;47.30;28.00;100770;;;;572667;245;23177;-84
2022/07/30 11:04:22;;;;;;;1.80;0.97;;;28.70;49.70;26.80;100780;;;;574351;247;23115;-83
2022/07/30 11:06:50;;;;;;;3.03;0.77;;;27.70;52.90;26.00;100769;;;;580875;247;23108;-83
2022/07/30 11:09:42;;;;;;;1.23;0.90;;;26.20;53.90;25.50;100761;;;;580910;241;23088;-83
2022/07/30 11:12:10;;;;;;;3.87;1.10;;;26.10;53.90;25.10;100764;;;;572191;248;23106;-83
2022/07/30 11:14:47;;;;;;;3.40;0.80;;;25.60;56.20;24.70;100758;;;;572077;245;24059;-83
2022/07/30 11:17:22;;;;;;;1.70;0.90;;;24.80;57.70;24.30;100765;;;;571967;245;24064;-84
2022/07/30 11:20:06;;;;;;;0.87;0.87;;;24.70;57.60;24.10;100762;;;;568298;246;24125;-82
2022/07/30 11:23:06;;;;;;;0.80;0.80;;;24.50;58.20;23.90;100752;;;;571861;248;23093;-84